createdAt,value
2022-08-19T00:01:53.367Z,8.38
2022-08-19T00:04:25.458Z,6.53
2022-08-19T00:06:54.646Z,2.83
2022-08-19T00:09:23.907Z,4.07
2022-08-19T00:11:52.311Z,2.80
2022-08-19T00:14:21.765Z,3.78
2022-08-19T00:16:49.909Z,3.88
2022-08-19T00:19:17.992Z,2.55
2022-08-19T00:21:45.716Z,5.97
2022-08-19T00:24:15.343Z,5.00
2022-08-19T00:26:43.492Z,5.43
2022-08-19T00:29:12.649Z,2.65
2022-08-19T00:31:42.803Z,3.35
2022-08-19T00:34:11.558Z,6.68
2022-08-19T00:36:40.284Z,5.85
2022-08-19T00:39:08.085Z,4.40
2022-08-19T00:41:35.824Z,3.50
2022-08-19T00:44:08.059Z,3.67
2022-08-19T00:46:37.933Z,4.47
2022-08-19T00:49:15.522Z,4.00
2022-08-19T00:51:45.882Z,4.55
2022-08-19T00:54:14.476Z,4.20
2022-08-19T00:56:42.573Z,4.38
2022-08-19T00:59:10.733Z,6.43
2022-08-19T01:01:41.628Z,4.82
2022-08-19T01:06:42.280Z,4.80
2022-08-19T01:09:12.818Z,8.60
2022-08-19T01:11:44.808Z,5.38
2022-08-19T01:14:13.370Z,5.75
2022-08-19T01:16:41.680Z,6.75
2022-08-19T01:19:21.786Z,5.15
2022-08-19T01:22:04.095Z,5.93
2022-08-19T01:24:47.439Z,4.90
2022-08-19T01:27:18.025Z,4.40
2022-08-19T01:29:46.289Z,5.38
2022-08-19T01:32:32.264Z,3.95
2022-08-19T01:35:03.716Z,6.03
2022-08-19T01:37:42.216Z,7.45
2022-08-19T01:40:12.943Z,4.13
2022-08-19T01:45:11.207Z,7.60
2022-08-19T01:47:39.336Z,3.95
2022-08-19T01:50:10.601Z,4.95
2022-08-19T01:52:40.894Z,7.53
2022-08-19T01:55:11.326Z,10.30
2022-08-19T01:57:40.907Z,5.80
2022-08-19T02:00:12.076Z,4.78
2022-08-19T02:02:39.989Z,6.10
2022-08-19T02:05:12.548Z,7.22
2022-08-19T02:07:41.795Z,5.05
2022-08-19T02:10:16.721Z,5.45
2022-08-19T02:12:44.638Z,8.10
2022-08-19T02:15:13.076Z,5.18
2022-08-19T02:17:41.194Z,7.85
2022-08-19T02:20:09.510Z,6.35
2022-08-19T02:22:36.953Z,7.45
2022-08-19T02:25:05.885Z,12.73
2022-08-19T02:27:34.429Z,12.15
2022-08-19T02:30:02.438Z,9.50
2022-08-19T02:32:31.536Z,9.35
2022-08-19T02:34:59.141Z,5.95
2022-08-19T02:37:45.021Z,8.50
2022-08-19T02:40:13.421Z,7.82
2022-08-19T02:42:41.881Z,8.70
2022-08-19T02:45:10.279Z,9.13
2022-08-19T02:47:37.717Z,8.80
2022-08-19T02:50:06.336Z,15.00
2022-08-19T02:52:34.932Z,9.30
2022-08-19T02:55:02.584Z,14.63
2022-08-19T02:57:32.737Z,14.02
2022-08-19T03:00:00.436Z,9.63
2022-08-19T03:02:28.468Z,7.88
2022-08-19T03:04:55.832Z,10.80
2022-08-19T03:07:23.319Z,7.38
2022-08-19T03:09:50.769Z,6.30
2022-08-19T03:12:18.176Z,7.10
2022-08-19T03:14:47.578Z,8.70
2022-08-19T03:17:15.266Z,6.72
2022-08-19T03:19:44.040Z,6.65
2022-08-19T03:22:11.918Z,7.15
2022-08-19T03:24:39.696Z,5.85
2022-08-19T03:27:07.235Z,6.82
2022-08-19T03:29:42.960Z,8.25
2022-08-19T03:32:29.702Z,6.05
2022-08-19T03:34:59.011Z,7.80
2022-08-19T03:37:27.172Z,9.02
2022-08-19T03:39:54.633Z,7.15
2022-08-19T03:42:32.110Z,6.00
2022-08-19T03:45:08.201Z,5.82
2022-08-19T03:47:35.620Z,7.70
2022-08-19T03:50:03.406Z,7.97
2022-08-19T03:52:30.884Z,7.88
2022-08-19T03:54:58.279Z,6.88
2022-08-19T03:57:31.651Z,6.85
2022-08-19T04:00:03.930Z,6.47
2022-08-19T04:02:41.838Z,4.65
2022-08-19T04:05:09.529Z,2.60
2022-08-19T04:07:36.879Z,4.93
2022-08-19T04:10:04.703Z,4.70
2022-08-19T04:12:32.520Z,3.20
2022-08-19T04:15:00.130Z,1.80
2022-08-19T04:17:28.072Z,5.82
2022-08-19T04:19:55.467Z,6.40
2022-08-19T04:22:22.934Z,4.50
2022-08-19T04:24:50.326Z,3.85
2022-08-19T04:27:17.777Z,7.20
2022-08-19T04:29:45.303Z,5.45
2022-08-19T04:32:14.297Z,5.35
2022-08-19T04:35:02.545Z,4.45
2022-08-19T04:37:35.339Z,7.32
2022-08-19T04:40:23.516Z,5.00
2022-08-19T04:42:50.998Z,6.28
2022-08-19T04:45:18.434Z,6.90
2022-08-19T04:47:47.510Z,6.75
2022-08-19T04:50:27.142Z,5.65
2022-08-19T04:52:57.041Z,6.00
2022-08-19T04:55:26.731Z,4.17
2022-08-19T04:57:55.725Z,8.82
2022-08-19T05:00:23.708Z,4.50
2022-08-19T05:02:51.122Z,5.68
2022-08-19T05:05:18.721Z,5.30
2022-08-19T05:07:46.298Z,4.13
2022-08-19T05:10:13.793Z,4.15
2022-08-19T05:12:41.183Z,4.65
2022-08-19T05:15:09.647Z,6.28
2022-08-19T05:17:38.893Z,3.60
2022-08-19T05:20:27.051Z,4.28
2022-08-19T05:22:54.683Z,2.85
2022-08-19T05:25:23.242Z,1.95
2022-08-19T05:27:50.715Z,4.88
2022-08-19T05:30:18.865Z,3.15
2022-08-19T05:33:01.309Z,4.03
2022-08-19T05:35:29.171Z,1.98
2022-08-19T05:38:02.246Z,4.47
2022-08-19T05:40:29.911Z,3.42
2022-08-19T05:42:57.303Z,2.58
2022-08-19T05:45:25.678Z,1.67
2022-08-19T05:47:53.062Z,5.65
2022-08-19T05:50:21.100Z,2.30
2022-08-19T05:52:50.710Z,4.53
2022-08-19T05:55:24.722Z,2.83
2022-08-19T05:57:52.139Z,1.55
2022-08-19T06:00:24.118Z,1.38
2022-08-19T06:02:52.893Z,1.65
2022-08-19T06:05:21.178Z,3.58
2022-08-19T06:07:48.622Z,1.42
2022-08-19T06:10:16.132Z,3.72
2022-08-19T06:12:43.490Z,0.80
2022-08-19T06:15:14.488Z,1.13
2022-08-19T06:17:42.966Z,1.15
2022-08-19T06:20:14.406Z,1.60
2022-08-19T06:22:45.080Z,3.47
2022-08-19T06:25:14.037Z,2.05
2022-08-19T06:27:58.657Z,1.08
2022-08-19T06:30:29.445Z,3.70
2022-08-19T06:32:56.957Z,1.85
2022-08-19T06:35:24.426Z,1.45
2022-08-19T06:37:53.541Z,1.73
2022-08-19T06:40:21.167Z,1.35
2022-08-19T06:42:54.206Z,0.77
2022-08-19T06:45:34.550Z,0.98
2022-08-19T06:48:02.509Z,1.20
2022-08-19T06:50:30.772Z,2.60
2022-08-19T06:52:58.164Z,0.90
2022-08-19T06:55:31.771Z,3.78
2022-08-19T06:58:04.847Z,3.50
2022-08-19T07:00:32.898Z,1.63
2022-08-19T07:03:04.476Z,4.20
2022-08-19T07:05:33.725Z,2.00
2022-08-19T07:08:04.777Z,2.50
2022-08-19T07:13:01.294Z,3.95
2022-08-19T07:15:28.781Z,2.20
2022-08-19T07:17:56.792Z,2.10
2022-08-19T07:20:28.405Z,3.90
2022-08-19T07:22:56.298Z,1.35
2022-08-19T07:25:32.514Z,3.08
2022-08-19T07:28:01.520Z,1.35
2022-08-19T07:30:29.343Z,1.95
2022-08-19T07:32:58.897Z,3.55
2022-08-19T07:35:26.763Z,2.78
2022-08-19T07:37:54.314Z,4.93
2022-08-19T07:40:22.161Z,2.47
2022-08-19T07:42:49.516Z,1.67
2022-08-19T07:45:17.273Z,3.88
2022-08-19T07:47:48.196Z,2.63
2022-08-19T07:50:26.116Z,2.35
2022-08-19T07:52:53.884Z,1.77
2022-08-19T07:55:41.310Z,2.92
2022-08-19T07:58:16.425Z,2.55
2022-08-19T08:00:45.543Z,1.88
2022-08-19T08:03:14.367Z,2.05
2022-08-19T08:06:00.637Z,1.83
2022-08-19T08:08:48.081Z,3.70
2022-08-19T08:11:21.203Z,6.85
2022-08-19T08:14:01.221Z,1.95
2022-08-19T08:16:35.608Z,4.35
2022-08-19T08:19:20.277Z,3.40
2022-08-19T08:21:55.293Z,2.55
2022-08-19T08:24:28.538Z,5.25
2022-08-19T08:26:57.803Z,2.05
2022-08-19T08:29:34.796Z,2.15
2022-08-19T08:32:03.605Z,3.45
2022-08-19T08:34:43.314Z,2.17
2022-08-19T08:37:10.837Z,6.00
2022-08-19T08:39:38.319Z,4.88
2022-08-19T08:42:24.670Z,2.13
2022-08-19T08:45:14.005Z,3.28
2022-08-19T08:47:45.644Z,5.57
2022-08-19T08:50:26.398Z,6.72
2022-08-19T08:52:58.129Z,3.15
2022-08-19T08:55:36.648Z,2.58
2022-08-19T08:58:31.669Z,4.00
2022-08-19T09:00:59.096Z,5.82
2022-08-19T09:03:31.423Z,3.97
2022-08-19T09:06:30.364Z,5.50
2022-08-19T09:09:11.936Z,7.72
2022-08-19T09:11:49.053Z,2.40
2022-08-19T09:14:49.180Z,3.55
2022-08-19T09:17:16.126Z,3.47
2022-08-19T09:20:09.023Z,4.50
2022-08-19T09:22:38.673Z,5.97
2022-08-19T09:25:08.279Z,7.65
2022-08-19T09:27:42.932Z,3.85
2022-08-19T09:30:18.328Z,5.53
2022-08-19T09:32:46.220Z,7.05
2022-08-19T09:35:14.922Z,5.88
2022-08-19T09:37:44.222Z,3.92
2022-08-19T09:40:13.455Z,5.10
2022-08-19T09:42:49.764Z,6.20
2022-08-19T09:45:22.470Z,6.28
2022-08-19T09:47:53.854Z,8.43
2022-08-19T09:50:23.045Z,6.53
2022-08-19T09:52:55.413Z,3.33
2022-08-19T09:55:31.850Z,6.00
2022-08-19T09:58:03.450Z,6.10
2022-08-19T10:00:31.941Z,3.75
2022-08-19T10:02:59.517Z,7.50
2022-08-19T10:05:45.709Z,4.07
2022-08-19T10:08:34.870Z,4.72
2022-08-19T10:11:27.783Z,4.93
2022-08-19T10:13:52.319Z,5.38
2022-08-19T10:16:26.109Z,5.88
2022-08-19T10:18:58.888Z,4.10
2022-08-19T10:21:32.129Z,5.68
2022-08-19T10:24:04.757Z,4.07
2022-08-19T10:26:37.703Z,5.68
2022-08-19T10:29:06.513Z,5.07
2022-08-19T10:32:01.033Z,8.30
2022-08-19T10:34:28.349Z,6.47
2022-08-19T10:37:01.295Z,6.13
2022-08-19T10:39:32.647Z,8.55
2022-08-19T10:42:19.903Z,11.50
2022-08-19T10:44:53.797Z,4.60
2022-08-19T10:47:24.644Z,6.70
2022-08-19T10:50:13.997Z,6.70
2022-08-19T10:52:49.275Z,7.10
2022-08-19T10:55:40.563Z,7.55
2022-08-19T10:58:14.129Z,6.43
2022-08-19T11:00:44.621Z,4.95
2022-08-19T11:03:12.617Z,8.32
2022-08-19T11:05:40.741Z,4.53
2022-08-19T11:08:22.492Z,6.93
2022-08-19T11:10:57.807Z,7.15
2022-08-19T11:13:25.619Z,4.07
2022-08-19T11:16:08.225Z,6.40
2022-08-19T11:18:41.799Z,5.43
2022-08-19T11:21:20.027Z,7.03
2022-08-19T11:23:49.799Z,5.53
2022-08-19T11:26:18.186Z,4.10
2022-08-19T11:28:46.385Z,8.32
2022-08-19T11:31:19.638Z,6.85
2022-08-19T11:33:48.220Z,6.32
2022-08-19T11:36:17.083Z,7.97
2022-08-19T11:38:45.949Z,4.97
2022-08-19T11:41:13.349Z,4.10
2022-08-19T11:43:40.953Z,7.38
2022-08-19T11:46:10.898Z,6.43
2022-08-19T11:48:38.972Z,4.77
2022-08-19T11:51:12.757Z,8.40
2022-08-19T11:53:40.729Z,8.95
2022-08-19T11:56:10.245Z,7.55
2022-08-19T11:58:38.407Z,7.13
2022-08-19T12:01:10.190Z,5.57
2022-08-19T12:03:38.384Z,7.28
2022-08-19T12:06:16.974Z,10.60
2022-08-19T12:08:46.109Z,12.98
2022-08-19T12:11:14.692Z,6.05
2022-08-19T12:13:45.934Z,6.80
2022-08-19T12:16:20.529Z,4.53
2022-08-19T12:18:48.058Z,6.40
2022-08-19T12:21:17.322Z,7.15
2022-08-19T12:23:46.416Z,5.07
2022-08-19T12:26:14.059Z,6.13
2022-08-19T12:28:42.488Z,10.45
2022-08-19T12:31:13.043Z,8.00
2022-08-19T12:33:41.843Z,12.80
2022-08-19T12:36:11.912Z,7.97
2022-08-19T12:38:40.038Z,10.27
2022-08-19T12:41:10.988Z,6.32
2022-08-19T12:43:38.941Z,7.25
2022-08-19T12:46:06.962Z,7.22
2022-08-19T12:48:40.314Z,9.63
2022-08-19T12:51:11.221Z,8.23
2022-08-19T12:53:39.338Z,6.93
2022-08-19T12:56:12.212Z,7.68
2022-08-19T12:58:49.099Z,9.77
2022-08-19T13:01:22.609Z,9.77
2022-08-19T13:03:53.538Z,8.93
2022-08-19T13:06:22.518Z,7.03
2022-08-19T13:08:50.082Z,6.90
2022-08-19T13:11:20.731Z,12.18
2022-08-19T13:16:16.269Z,8.43
2022-08-19T13:18:47.458Z,6.88
2022-08-19T13:21:15.196Z,5.13
2022-08-19T13:23:42.865Z,7.40
2022-08-19T13:26:12.400Z,10.20
2022-08-19T13:28:59.745Z,6.13
2022-08-19T13:31:49.643Z,5.82
2022-08-19T13:34:18.539Z,7.93
2022-08-19T13:36:46.503Z,10.68
2022-08-19T13:39:14.352Z,5.05
2022-08-19T13:41:49.147Z,7.28
2022-08-19T13:44:19.269Z,10.27
2022-08-19T13:46:49.572Z,11.52
2022-08-19T13:49:21.708Z,8.15
2022-08-19T13:51:49.253Z,7.80
2022-08-19T13:54:16.663Z,10.43
2022-08-19T13:56:45.835Z,7.15
2022-08-19T13:59:13.673Z,9.70
2022-08-19T14:01:42.311Z,10.23
2022-08-19T14:04:10.177Z,9.65
2022-08-19T14:06:37.665Z,8.35
2022-08-19T14:09:06.058Z,8.07
2022-08-19T14:11:33.511Z,9.32
2022-08-19T14:14:00.973Z,6.32
2022-08-19T14:16:28.559Z,7.43
2022-08-19T14:18:56.103Z,5.88
2022-08-19T14:21:26.136Z,8.48
2022-08-19T14:23:54.376Z,8.27
2022-08-19T14:26:23.325Z,5.00
2022-08-19T14:28:53.217Z,8.57
2022-08-19T14:31:21.034Z,7.38
2022-08-19T14:33:49.238Z,7.28
2022-08-19T14:36:17.772Z,3.90
2022-08-19T14:38:45.233Z,8.30
2022-08-19T14:41:16.711Z,8.10
2022-08-19T14:43:49.223Z,6.60
2022-08-19T14:46:18.632Z,8.57
2022-08-19T14:48:51.720Z,13.18
2022-08-19T14:51:22.784Z,9.18
2022-08-19T14:53:51.391Z,6.47
2022-08-19T14:56:26.526Z,5.10
2022-08-19T14:58:54.643Z,8.43
2022-08-19T15:01:24.003Z,6.90
2022-08-19T15:03:55.755Z,8.73
2022-08-19T15:06:24.766Z,4.63
2022-08-19T15:08:53.829Z,10.88
2022-08-19T15:11:25.053Z,6.28
2022-08-19T15:13:53.953Z,11.13
2022-08-19T15:16:22.549Z,8.60
2022-08-19T15:18:53.097Z,8.13
2022-08-19T15:21:26.420Z,9.20
2022-08-19T15:23:57.328Z,8.35
2022-08-19T15:26:27.347Z,9.63
2022-08-19T15:28:55.247Z,6.10
2022-08-19T15:31:28.757Z,8.82
2022-08-19T15:33:58.734Z,8.32
2022-08-19T15:36:27.358Z,8.70
2022-08-19T15:38:56.365Z,5.10
2022-08-19T15:41:27.417Z,6.82
2022-08-19T15:44:10.258Z,5.72
2022-08-19T15:46:39.953Z,12.23
2022-08-19T15:49:08.009Z,7.28
2022-08-19T15:51:39.056Z,9.50
2022-08-19T15:54:09.880Z,3.15
2022-08-19T15:59:47.226Z,6.60
2022-08-19T16:02:38.316Z,9.02
2022-08-19T16:05:27.384Z,8.52
2022-08-19T16:07:55.089Z,9.40
2022-08-19T16:10:27.199Z,8.90
2022-08-19T16:12:57.649Z,5.40
2022-08-19T16:15:30.611Z,5.23
2022-08-19T16:17:59.032Z,11.18
2022-08-19T16:20:27.436Z,9.57
2022-08-19T16:22:58.410Z,9.60
2022-08-19T16:25:29.975Z,8.43
2022-08-19T16:28:07.680Z,9.93
2022-08-19T16:30:40.586Z,5.78
2022-08-19T16:33:09.408Z,6.82
2022-08-19T16:35:37.819Z,7.03
2022-08-19T16:38:07.047Z,6.03
2022-08-19T16:40:35.582Z,7.10
2022-08-19T16:43:03.528Z,6.35
2022-08-19T16:45:31.088Z,9.52
2022-08-19T16:47:58.474Z,7.93
2022-08-19T16:50:47.760Z,11.43
2022-08-19T16:53:17.669Z,14.50
2022-08-19T16:55:50.809Z,6.60
2022-08-19T16:58:18.684Z,11.63
2022-08-19T17:00:46.887Z,10.80
2022-08-19T17:03:15.252Z,8.02
2022-08-19T17:05:48.694Z,8.73
2022-08-19T17:08:19.035Z,6.13
2022-08-19T17:11:02.125Z,7.18
2022-08-19T17:13:35.310Z,9.48
2022-08-19T17:16:03.231Z,11.82
2022-08-19T17:18:32.639Z,8.10
2022-08-19T17:21:01.249Z,7.65
2022-08-19T17:23:43.222Z,8.73
2022-08-19T17:26:16.989Z,6.45
2022-08-19T17:28:55.050Z,7.60
2022-08-19T17:31:25.560Z,7.15
2022-08-19T17:33:55.106Z,12.15
2022-08-19T17:36:23.881Z,13.63
2022-08-19T17:38:52.887Z,8.02
2022-08-19T17:41:20.259Z,5.60
2022-08-19T17:43:47.679Z,7.82
2022-08-19T17:46:17.723Z,12.07
2022-08-19T17:48:52.182Z,6.93
2022-08-19T17:51:42.155Z,7.45
2022-08-19T17:54:14.033Z,8.38
2022-08-19T17:56:42.305Z,7.68
2022-08-19T17:59:13.953Z,7.90
2022-08-19T18:01:52.021Z,8.55
2022-08-19T18:04:24.901Z,9.63
2022-08-19T18:09:30.023Z,6.32
2022-08-19T18:12:11.660Z,10.82
2022-08-19T18:14:40.227Z,7.07
2022-08-19T18:17:12.547Z,8.35
2022-08-19T18:19:43.271Z,7.60
2022-08-19T18:22:29.161Z,4.20
2022-08-19T18:24:58.291Z,7.88
2022-08-19T18:27:27.720Z,11.07
2022-08-19T18:29:58.055Z,7.32
2022-08-19T18:32:27.017Z,11.52
2022-08-19T18:34:54.930Z,10.20
2022-08-19T18:37:25.207Z,7.47
2022-08-19T18:40:11.282Z,8.93
2022-08-19T18:43:04.322Z,10.93
2022-08-19T18:45:50.940Z,6.63
2022-08-19T18:48:36.970Z,11.48
2022-08-19T18:51:04.870Z,10.80
2022-08-19T18:53:34.843Z,7.57
2022-08-19T18:56:02.412Z,7.53
2022-08-19T18:58:34.627Z,12.57
2022-08-19T19:01:11.446Z,7.65
2022-08-19T19:03:45.378Z,12.85
2022-08-19T19:06:19.947Z,9.18
2022-08-19T19:08:48.839Z,12.02
2022-08-19T19:11:25.123Z,10.75
2022-08-19T19:13:52.854Z,8.77
2022-08-19T19:16:24.378Z,10.10
2022-08-19T19:18:52.827Z,11.18
2022-08-19T19:21:23.112Z,12.65
2022-08-19T19:23:52.349Z,8.43
2022-08-19T19:26:21.697Z,6.80
2022-08-19T19:28:51.390Z,9.00
2022-08-19T19:31:27.603Z,7.28
2022-08-19T19:33:56.249Z,11.02
2022-08-19T19:36:24.505Z,10.90
2022-08-19T19:38:52.856Z,7.68
2022-08-19T19:41:25.990Z,6.05
2022-08-19T19:44:29.305Z,8.70
2022-08-19T19:46:48.608Z,9.05
2022-08-19T19:49:16.633Z,9.30
2022-08-19T19:51:43.841Z,9.55
2022-08-19T19:54:15.361Z,13.32
2022-08-19T19:56:50.330Z,8.70
2022-08-19T19:59:18.248Z,10.05
2022-08-19T20:01:50.467Z,11.45
2022-08-19T20:04:22.101Z,12.30
2022-08-19T20:06:49.515Z,10.70
2022-08-19T20:09:19.722Z,11.38
2022-08-19T20:11:49.281Z,9.23
2022-08-19T20:14:25.451Z,11.90
2022-08-19T20:16:54.624Z,6.90
2022-08-19T20:19:28.459Z,9.35
2022-08-19T20:21:57.388Z,13.25
2022-08-19T20:24:27.909Z,11.40
2022-08-19T20:26:55.461Z,7.65
2022-08-19T20:29:38.292Z,8.65
2022-08-19T20:32:09.203Z,11.27
2022-08-19T20:34:37.301Z,11.75
2022-08-19T20:37:05.321Z,8.63
2022-08-19T20:39:32.750Z,8.80
2022-08-19T20:42:00.796Z,7.65
2022-08-19T20:44:28.309Z,11.60
2022-08-19T20:46:58.461Z,6.50
2022-08-19T20:49:28.276Z,7.43
2022-08-19T20:51:57.246Z,7.72
2022-08-19T20:54:25.948Z,14.27
2022-08-19T20:56:53.931Z,10.55
2022-08-19T20:59:22.347Z,6.57
2022-08-19T21:01:51.934Z,5.70
2022-08-19T21:04:22.559Z,11.82
2022-08-19T21:06:50.568Z,9.90
2022-08-19T21:09:18.138Z,6.18
2022-08-19T21:11:45.611Z,6.75
2022-08-19T21:14:13.179Z,6.32
2022-08-19T21:16:40.567Z,7.75
2022-08-19T21:19:07.996Z,4.65
2022-08-19T21:21:35.414Z,4.57
2022-08-19T21:24:03.225Z,5.20
2022-08-19T21:26:30.786Z,9.82
2022-08-19T21:28:58.200Z,7.03
2022-08-19T21:31:25.634Z,11.57
2022-08-19T21:33:53.127Z,8.32
2022-08-19T21:36:20.524Z,5.85
2022-08-19T21:38:47.969Z,6.40
2022-08-19T21:41:15.467Z,7.22
2022-08-19T21:43:42.928Z,6.82
2022-08-19T21:46:10.400Z,12.60
2022-08-19T21:48:37.864Z,5.68
2022-08-19T21:51:05.513Z,7.00
2022-08-19T21:53:34.617Z,4.13
2022-08-19T21:56:03.822Z,7.25
2022-08-19T21:58:31.410Z,4.85
2022-08-19T22:01:00.476Z,5.50
2022-08-19T22:03:28.144Z,7.90
2022-08-19T22:05:55.655Z,6.57
2022-08-19T22:08:23.386Z,6.25
2022-08-19T22:10:51.383Z,4.85
2022-08-19T22:13:20.298Z,5.43
2022-08-19T22:15:48.734Z,7.07
2022-08-19T22:18:17.852Z,6.28
2022-08-19T22:20:45.987Z,5.22
2022-08-19T22:23:13.835Z,6.00
2022-08-19T22:25:45.203Z,7.18
2022-08-19T22:28:19.148Z,6.28
2022-08-19T22:30:56.178Z,6.82
2022-08-19T22:33:25.779Z,7.68
2022-08-19T22:35:53.565Z,7.03
2022-08-19T22:38:21.510Z,9.60
2022-08-19T22:40:51.440Z,5.40
2022-08-19T22:43:21.441Z,9.90
2022-08-19T22:45:50.869Z,10.55
2022-08-19T22:48:21.413Z,4.53
2022-08-19T22:51:08.037Z,7.82
2022-08-19T22:53:39.681Z,7.32
2022-08-19T22:56:14.448Z,6.95
2022-08-19T22:58:43.564Z,9.13
2022-08-19T23:01:23.109Z,10.55
2022-08-19T23:03:59.508Z,5.70
2022-08-19T23:06:33.083Z,6.47
2022-08-19T23:09:05.060Z,6.55
2022-08-19T23:11:41.559Z,7.93
2022-08-19T23:14:12.633Z,6.43
2022-08-19T23:16:41.575Z,5.38
2022-08-19T23:19:10.091Z,3.67
2022-08-19T23:21:39.085Z,8.43
2022-08-19T23:24:07.035Z,9.85
2022-08-19T23:26:36.121Z,7.72
2022-08-19T23:29:23.592Z,16.73
2022-08-19T23:31:51.227Z,24.58
2022-08-19T23:34:18.739Z,7.53
2022-08-19T23:36:46.366Z,7.18
2022-08-19T23:39:13.790Z,6.32
2022-08-19T23:41:41.256Z,8.00
2022-08-19T23:44:14.639Z,7.60
2022-08-19T23:46:54.946Z,8.52
2022-08-19T23:49:24.731Z,7.20
2022-08-19T23:51:53.491Z,8.05
2022-08-19T23:54:20.916Z,11.60
2022-08-19T23:56:48.358Z,6.93
2022-08-19T23:59:15.866Z,5.72
